sensor_id;sensor_type;location;lat;lon;timestamp;P1;durP1;ratioP1;P2;durP2;ratioP2
51985;SDS011;38002;53.296;6.600;2024-03-23T00:57:09;19.23;;;4.30;;
51985;SDS011;38002;53.296;6.600;2024-03-23T01:02:10;28.75;;;5.03;;
51985;SDS011;38002;53.296;6.600;2024-03-23T01:07:10;18.53;;;4.67;;
51985;SDS011;38002;53.296;6.600;2024-03-23T01:12:10;22.70;;;4.85;;
51985;SDS011;38002;53.296;6.600;2024-03-23T01:17:11;23.10;;;4.37;;
51985;SDS011;38002;53.296;6.600;2024-03-23T01:22:11;18.90;;;4.13;;
51985;SDS011;38002;53.296;6.600;2024-03-23T01:27:12;25.73;;;4.60;;
51985;SDS011;38002;53.296;6.600;2024-03-23T01:32:13;22.67;;;4.57;;
51985;SDS011;38002;53.296;6.600;2024-03-23T01:37:13;20.43;;;4.57;;
51985;SDS011;38002;53.296;6.600;2024-03-23T01:42:13;26.47;;;4.87;;
51985;SDS011;38002;53.296;6.600;2024-03-23T01:47:14;21.90;;;5.60;;
51985;SDS011;38002;53.296;6.600;2024-03-23T01:52:14;14.55;;;3.78;;
51985;SDS011;38002;53.296;6.600;2024-03-23T01:57:15;16.77;;;3.97;;
51985;SDS011;38002;53.296;6.600;2024-03-23T02:02:15;23.57;;;3.93;;
51985;SDS011;38002;53.296;6.600;2024-03-23T02:12:18;24.10;;;4.32;;
51985;SDS011;38002;53.296;6.600;2024-03-23T02:17:18;15.57;;;3.35;;
51985;SDS011;38002;53.296;6.600;2024-03-23T02:22:18;20.55;;;4.55;;
51985;SDS011;38002;53.296;6.600;2024-03-23T02:27:19;15.07;;;4.13;;
51985;SDS011;38002;53.296;6.600;2024-03-23T02:32:19;16.53;;;3.30;;
51985;SDS011;38002;53.296;6.600;2024-03-23T02:37:19;15.50;;;3.57;;
51985;SDS011;38002;53.296;6.600;2024-03-23T02:42:20;21.90;;;4.60;;
51985;SDS011;38002;53.296;6.600;2024-03-23T02:47:20;14.68;;;4.03;;
51985;SDS011;38002;53.296;6.600;2024-03-23T02:52:21;16.00;;;3.03;;
51985;SDS011;38002;53.296;6.600;2024-03-23T02:57:21;19.20;;;4.47;;
51985;SDS011;38002;53.296;6.600;2024-03-23T03:02:22;15.07;;;3.23;;
51985;SDS011;38002;53.296;6.600;2024-03-23T03:07:22;19.40;;;3.60;;
51985;SDS011;38002;53.296;6.600;2024-03-23T03:12:22;21.98;;;3.83;;
51985;SDS011;38002;53.296;6.600;2024-03-23T03:17:23;18.07;;;4.00;;
51985;SDS011;38002;53.296;6.600;2024-03-23T03:22:24;17.47;;;4.07;;
51985;SDS011;38002;53.296;6.600;2024-03-23T03:27:24;11.37;;;3.43;;
51985;SDS011;38002;53.296;6.600;2024-03-23T03:32:25;14.13;;;3.63;;
51985;SDS011;38002;53.296;6.600;2024-03-23T03:37:25;16.07;;;2.73;;
51985;SDS011;38002;53.296;6.600;2024-03-23T03:42:25;15.20;;;2.90;;
51985;SDS011;38002;53.296;6.600;2024-03-23T03:47:26;19.38;;;4.60;;
51985;SDS011;38002;53.296;6.600;2024-03-23T03:52:26;6.40;;;2.40;;
51985;SDS011;38002;53.296;6.600;2024-03-23T03:57:27;15.53;;;3.23;;
51985;SDS011;38002;53.296;6.600;2024-03-23T04:02:27;14.80;;;3.73;;
51985;SDS011;38002;53.296;6.600;2024-03-23T04:07:27;12.27;;;3.40;;
51985;SDS011;38002;53.296;6.600;2024-03-23T04:12:28;17.63;;;2.45;;
51985;SDS011;38002;53.296;6.600;2024-03-23T04:17:29;8.97;;;3.20;;
51985;SDS011;38002;53.296;6.600;2024-03-23T04:22:31;5.55;;;2.35;;
51985;SDS011;38002;53.296;6.600;2024-03-23T04:27:32;11.77;;;2.17;;
51985;SDS011;38002;53.296;6.600;2024-03-23T04:32:33;9.90;;;2.55;;
51985;SDS011;38002;53.296;6.600;2024-03-23T04:37:34;9.73;;;3.13;;
51985;SDS011;38002;53.296;6.600;2024-03-23T04:42:34;15.13;;;2.80;;
51985;SDS011;38002;53.296;6.600;2024-03-23T04:47:35;11.90;;;2.57;;
51985;SDS011;38002;53.296;6.600;2024-03-23T04:52:35;13.47;;;2.73;;
51985;SDS011;38002;53.296;6.600;2024-03-23T04:57:36;11.07;;;2.38;;
51985;SDS011;38002;53.296;6.600;2024-03-23T05:02:36;16.80;;;3.00;;
51985;SDS011;38002;53.296;6.600;2024-03-23T05:07:37;17.83;;;3.10;;
51985;SDS011;38002;53.296;6.600;2024-03-23T05:12:37;12.68;;;2.92;;
51985;SDS011;38002;53.296;6.600;2024-03-23T05:17:38;14.63;;;3.27;;
51985;SDS011;38002;53.296;6.600;2024-03-23T05:22:39;11.93;;;3.30;;
51985;SDS011;38002;53.296;6.600;2024-03-23T05:27:40;8.80;;;2.40;;
51985;SDS011;38002;53.296;6.600;2024-03-23T05:32:40;23.67;;;3.25;;
51985;SDS011;38002;53.296;6.600;2024-03-23T05:37:41;14.27;;;2.63;;
51985;SDS011;38002;53.296;6.600;2024-03-23T05:42:42;8.77;;;2.20;;
51985;SDS011;38002;53.296;6.600;2024-03-23T05:47:42;7.65;;;2.35;;
51985;SDS011;38002;53.296;6.600;2024-03-23T05:52:43;23.63;;;2.70;;
51985;SDS011;38002;53.296;6.600;2024-03-23T05:57:43;24.13;;;3.03;;
51985;SDS011;38002;53.296;6.600;2024-03-23T06:02:45;13.57;;;2.85;;
51985;SDS011;38002;53.296;6.600;2024-03-23T06:07:45;10.37;;;2.07;;
51985;SDS011;38002;53.296;6.600;2024-03-23T06:12:46;10.27;;;3.00;;
51985;SDS011;38002;53.296;6.600;2024-03-23T06:17:46;11.75;;;2.33;;
51985;SDS011;38002;53.296;6.600;2024-03-23T06:22:47;14.60;;;3.20;;
51985;SDS011;38002;53.296;6.600;2024-03-23T06:27:47;13.93;;;2.50;;
51985;SDS011;38002;53.296;6.600;2024-03-23T06:32:48;10.10;;;2.20;;
51985;SDS011;38002;53.296;6.600;2024-03-23T06:37:48;10.17;;;2.00;;
51985;SDS011;38002;53.296;6.600;2024-03-23T06:42:49;17.45;;;2.42;;
51985;SDS011;38002;53.296;6.600;2024-03-23T06:47:49;14.95;;;2.95;;
51985;SDS011;38002;53.296;6.600;2024-03-23T06:52:50;10.87;;;2.10;;
51985;SDS011;38002;53.296;6.600;2024-03-23T06:57:51;14.93;;;2.28;;
51985;SDS011;38002;53.296;6.600;2024-03-23T07:02:51;18.20;;;2.13;;
51985;SDS011;38002;53.296;6.600;2024-03-23T07:07:53;14.53;;;2.10;;
51985;SDS011;38002;53.296;6.600;2024-03-23T07:12:53;12.43;;;1.92;;
51985;SDS011;38002;53.296;6.600;2024-03-23T07:17:53;8.27;;;2.35;;
51985;SDS011;38002;53.296;6.600;2024-03-23T07:22:54;8.70;;;2.50;;
51985;SDS011;38002;53.296;6.600;2024-03-23T07:27:54;8.20;;;1.97;;
51985;SDS011;38002;53.296;6.600;2024-03-23T07:32:55;12.63;;;2.77;;
51985;SDS011;38002;53.296;6.600;2024-03-23T07:37:55;5.70;;;1.73;;
51985;SDS011;38002;53.296;6.600;2024-03-23T07:42:56;8.07;;;2.20;;
51985;SDS011;38002;53.296;6.600;2024-03-23T07:47:56;13.18;;;2.35;;
51985;SDS011;38002;53.296;6.600;2024-03-23T07:52:57;6.37;;;2.33;;
51985;SDS011;38002;53.296;6.600;2024-03-23T07:57:57;5.40;;;2.13;;
51985;SDS011;38002;53.296;6.600;2024-03-23T08:02:57;8.10;;;2.20;;
51985;SDS011;38002;53.296;6.600;2024-03-23T08:07:58;7.07;;;2.07;;
51985;SDS011;38002;53.296;6.600;2024-03-23T08:12:59;11.70;;;2.50;;
51985;SDS011;38002;53.296;6.600;2024-03-23T08:18:00;7.07;;;1.57;;
51985;SDS011;38002;53.296;6.600;2024-03-23T08:23:00;9.77;;;1.60;;
51985;SDS011;38002;53.296;6.600;2024-03-23T08:28:01;6.13;;;2.15;;
51985;SDS011;38002;53.296;6.600;2024-03-23T08:33:01;5.37;;;1.30;;
51985;SDS011;38002;53.296;6.600;2024-03-23T08:38:02;5.43;;;1.13;;
51985;SDS011;38002;53.296;6.600;2024-03-23T08:43:02;4.40;;;1.50;;
51985;SDS011;38002;53.296;6.600;2024-03-23T08:48:03;7.33;;;1.60;;
51985;SDS011;38002;53.296;6.600;2024-03-23T08:53:04;7.93;;;2.00;;
51985;SDS011;38002;53.296;6.600;2024-03-23T08:58:04;9.13;;;1.77;;
51985;SDS011;38002;53.296;6.600;2024-03-23T09:03:05;6.80;;;2.20;;
51985;SDS011;38002;53.296;6.600;2024-03-23T09:08:06;7.67;;;1.80;;
51985;SDS011;38002;53.296;6.600;2024-03-23T09:13:07;7.50;;;1.60;;
51985;SDS011;38002;53.296;6.600;2024-03-23T09:18:08;12.63;;;2.50;;
51985;SDS011;38002;53.296;6.600;2024-03-23T09:23:08;6.83;;;2.30;;
51985;SDS011;38002;53.296;6.600;2024-03-23T09:28:08;9.93;;;1.77;;
51985;SDS011;38002;53.296;6.600;2024-03-23T09:33:09;6.50;;;1.63;;
51985;SDS011;38002;53.296;6.600;2024-03-23T09:38:11;4.75;;;1.15;;
51985;SDS011;38002;53.296;6.600;2024-03-23T09:43:11;10.03;;;1.77;;
51985;SDS011;38002;53.296;6.600;2024-03-23T09:48:12;7.47;;;1.50;;
51985;SDS011;38002;53.296;6.600;2024-03-23T09:53:13;7.00;;;1.30;;
51985;SDS011;38002;53.296;6.600;2024-03-23T09:58:16;3.47;;;1.73;;
51985;SDS011;38002;53.296;6.600;2024-03-23T10:03:17;10.38;;;1.38;;
51985;SDS011;38002;53.296;6.600;2024-03-23T10:08:18;18.73;;;3.60;;
51985;SDS011;38002;53.296;6.600;2024-03-23T10:18:26;5.05;;;1.45;;
51985;SDS011;38002;53.296;6.600;2024-03-23T10:23:29;4.78;;;1.65;;
51985;SDS011;38002;53.296;6.600;2024-03-23T10:28:30;8.85;;;1.45;;
51985;SDS011;38002;53.296;6.600;2024-03-23T10:33:30;6.57;;;2.03;;
51985;SDS011;38002;53.296;6.600;2024-03-23T10:38:31;5.10;;;1.07;;
51985;SDS011;38002;53.296;6.600;2024-03-23T10:43:32;9.40;;;1.40;;
51985;SDS011;38002;53.296;6.600;2024-03-23T10:48:33;7.63;;;1.30;;
51985;SDS011;38002;53.296;6.600;2024-03-23T10:53:34;13.27;;;1.80;;
51985;SDS011;38002;53.296;6.600;2024-03-23T10:58:38;5.32;;;1.88;;
51985;SDS011;38002;53.296;6.600;2024-03-23T11:03:47;9.48;;;1.73;;
51985;SDS011;38002;53.296;6.600;2024-03-23T11:08:47;9.82;;;1.52;;
51985;SDS011;38002;53.296;6.600;2024-03-23T11:13:52;12.65;;;1.90;;
51985;SDS011;38002;53.296;6.600;2024-03-23T11:18:53;2.08;;;0.95;;
51985;SDS011;38002;53.296;6.600;2024-03-23T11:23:55;11.13;;;2.00;;
51985;SDS011;38002;53.296;6.600;2024-03-23T11:29:14;5.82;;;1.40;;
51985;SDS011;38002;53.296;6.600;2024-03-23T11:34:16;12.23;;;1.23;;
51985;SDS011;38002;53.296;6.600;2024-03-23T11:39:18;6.55;;;1.27;;
51985;SDS011;38002;53.296;6.600;2024-03-23T11:44:20;12.27;;;2.28;;
51985;SDS011;38002;53.296;6.600;2024-03-23T11:49:29;11.55;;;2.10;;
51985;SDS011;38002;53.296;6.600;2024-03-23T11:54:29;10.93;;;1.90;;
51985;SDS011;38002;53.296;6.600;2024-03-23T11:59:39;8.25;;;1.73;;
51985;SDS011;38002;53.296;6.600;2024-03-23T12:04:41;15.07;;;2.20;;
51985;SDS011;38002;53.296;6.600;2024-03-23T12:09:42;8.07;;;2.33;;
51985;SDS011;38002;53.296;6.600;2024-03-23T12:14:43;8.17;;;1.97;;
51985;SDS011;38002;53.296;6.600;2024-03-23T12:19:44;15.65;;;2.13;;
51985;SDS011;38002;53.296;6.600;2024-03-23T12:24:45;8.30;;;0.82;;
51985;SDS011;38002;53.296;6.600;2024-03-23T12:29:46;8.70;;;1.37;;
51985;SDS011;38002;53.296;6.600;2024-03-23T12:34:46;2.67;;;1.17;;
51985;SDS011;38002;53.296;6.600;2024-03-23T12:39:47;8.13;;;1.10;;
51985;SDS011;38002;53.296;6.600;2024-03-23T12:44:47;5.57;;;1.57;;
51985;SDS011;38002;53.296;6.600;2024-03-23T12:49:48;8.40;;;1.00;;
51985;SDS011;38002;53.296;6.600;2024-03-23T12:54:49;6.43;;;1.92;;
51985;SDS011;38002;53.296;6.600;2024-03-23T12:59:51;7.77;;;1.33;;
51985;SDS011;38002;53.296;6.600;2024-03-23T13:04:53;9.23;;;1.15;;
51985;SDS011;38002;53.296;6.600;2024-03-23T13:09:54;4.90;;;1.47;;
51985;SDS011;38002;53.296;6.600;2024-03-23T13:14:56;3.90;;;1.75;;
51985;SDS011;38002;53.296;6.600;2024-03-23T13:19:56;4.60;;;1.50;;
51985;SDS011;38002;53.296;6.600;2024-03-23T13:24:57;3.37;;;1.07;;
51985;SDS011;38002;53.296;6.600;2024-03-23T13:29:57;13.63;;;1.92;;
51985;SDS011;38002;53.296;6.600;2024-03-23T13:34:58;12.73;;;2.60;;
51985;SDS011;38002;53.296;6.600;2024-03-23T13:39:58;7.80;;;2.23;;
51985;SDS011;38002;53.296;6.600;2024-03-23T13:44:59;9.93;;;1.90;;
51985;SDS011;38002;53.296;6.600;2024-03-23T13:49:59;7.87;;;1.40;;
51985;SDS011;38002;53.296;6.600;2024-03-23T13:54:59;5.77;;;1.00;;
51985;SDS011;38002;53.296;6.600;2024-03-23T14:00:00;3.10;;;0.93;;
51985;SDS011;38002;53.296;6.600;2024-03-23T14:05:01;6.10;;;1.60;;
51985;SDS011;38002;53.296;6.600;2024-03-23T14:10:05;5.90;;;1.48;;
51985;SDS011;38002;53.296;6.600;2024-03-23T14:15:06;3.78;;;1.25;;
51985;SDS011;38002;53.296;6.600;2024-03-23T14:20:07;10.17;;;2.33;;
51985;SDS011;38002;53.296;6.600;2024-03-23T14:25:11;6.43;;;1.30;;
51985;SDS011;38002;53.296;6.600;2024-03-23T14:30:11;13.25;;;2.03;;
51985;SDS011;38002;53.296;6.600;2024-03-23T14:35:12;12.20;;;2.73;;
51985;SDS011;38002;53.296;6.600;2024-03-23T14:40:13;10.45;;;1.55;;
51985;SDS011;38002;53.296;6.600;2024-03-23T14:45:13;9.43;;;1.40;;
51985;SDS011;38002;53.296;6.600;2024-03-23T14:50:15;4.18;;;1.25;;
51985;SDS011;38002;53.296;6.600;2024-03-23T14:55:16;2.73;;;1.23;;
51985;SDS011;38002;53.296;6.600;2024-03-23T15:00:17;11.63;;;1.47;;
51985;SDS011;38002;53.296;6.600;2024-03-23T15:05:18;10.65;;;1.95;;
51985;SDS011;38002;53.296;6.600;2024-03-23T15:10:19;13.17;;;1.87;;
51985;SDS011;38002;53.296;6.600;2024-03-23T15:15:19;11.67;;;1.93;;
51985;SDS011;38002;53.296;6.600;2024-03-23T15:20:19;9.77;;;2.03;;
51985;SDS011;38002;53.296;6.600;2024-03-23T15:25:20;9.27;;;1.33;;
51985;SDS011;38002;53.296;6.600;2024-03-23T15:30:23;10.10;;;1.88;;
51985;SDS011;38002;53.296;6.600;2024-03-23T15:35:24;10.03;;;1.77;;
51985;SDS011;38002;53.296;6.600;2024-03-23T15:40:24;4.20;;;1.10;;
51985;SDS011;38002;53.296;6.600;2024-03-23T15:45:25;6.40;;;1.47;;
51985;SDS011;38002;53.296;6.600;2024-03-23T15:50:25;7.70;;;1.53;;
51985;SDS011;38002;53.296;6.600;2024-03-23T15:55:26;7.70;;;1.37;;
51985;SDS011;38002;53.296;6.600;2024-03-23T16:00:26;4.90;;;1.13;;
51985;SDS011;38002;53.296;6.600;2024-03-23T16:05:27;11.27;;;1.60;;
51985;SDS011;38002;53.296;6.600;2024-03-23T16:10:28;9.33;;;2.27;;
51985;SDS011;38002;53.296;6.600;2024-03-23T16:15:28;7.13;;;1.43;;
51985;SDS011;38002;53.296;6.600;2024-03-23T16:20:28;7.57;;;1.23;;
51985;SDS011;38002;53.296;6.600;2024-03-23T16:25:29;5.33;;;1.10;;
51985;SDS011;38002;53.296;6.600;2024-03-23T16:30:30;5.82;;;1.77;;
51985;SDS011;38002;53.296;6.600;2024-03-23T16:35:31;7.87;;;1.63;;
51985;SDS011;38002;53.296;6.600;2024-03-23T16:40:31;7.37;;;1.97;;
51985;SDS011;38002;53.296;6.600;2024-03-23T16:45:31;8.43;;;1.53;;
51985;SDS011;38002;53.296;6.600;2024-03-23T16:50:34;3.97;;;1.47;;
51985;SDS011;38002;53.296;6.600;2024-03-23T16:55:35;6.20;;;1.83;;
51985;SDS011;38002;53.296;6.600;2024-03-23T17:00:36;5.90;;;1.57;;
51985;SDS011;38002;53.296;6.600;2024-03-23T17:05:39;11.17;;;1.70;;
51985;SDS011;38002;53.296;6.600;2024-03-23T17:10:40;5.35;;;1.30;;
51985;SDS011;38002;53.296;6.600;2024-03-23T17:15:44;10.87;;;1.70;;
51985;SDS011;38002;53.296;6.600;2024-03-23T17:20:45;12.38;;;2.58;;
51985;SDS011;38002;53.296;6.600;2024-03-23T17:25:45;9.17;;;1.40;;
51985;SDS011;38002;53.296;6.600;2024-03-23T17:30:46;13.47;;;1.97;;
51985;SDS011;38002;53.296;6.600;2024-03-23T17:35:47;10.83;;;1.60;;
51985;SDS011;38002;53.296;6.600;2024-03-23T17:40:47;8.13;;;1.87;;
51985;SDS011;38002;53.296;6.600;2024-03-23T17:45:49;7.72;;;1.77;;
51985;SDS011;38002;53.296;6.600;2024-03-23T17:51:02;2.30;;;1.35;;
51985;SDS011;38002;53.296;6.600;2024-03-23T17:56:04;6.60;;;2.42;;
51985;SDS011;38002;53.296;6.600;2024-03-23T18:01:06;11.75;;;1.65;;
51985;SDS011;38002;53.296;6.600;2024-03-23T18:06:07;5.75;;;1.60;;
51985;SDS011;38002;53.296;6.600;2024-03-23T18:11:08;6.20;;;1.73;;
51985;SDS011;38002;53.296;6.600;2024-03-23T18:16:08;6.93;;;1.60;;
51985;SDS011;38002;53.296;6.600;2024-03-23T18:21:09;8.77;;;2.43;;
51985;SDS011;38002;53.296;6.600;2024-03-23T18:26:09;6.23;;;1.90;;
51985;SDS011;38002;53.296;6.600;2024-03-23T18:31:10;12.98;;;2.45;;
51985;SDS011;38002;53.296;6.600;2024-03-23T18:36:10;8.23;;;2.03;;
51985;SDS011;38002;53.296;6.600;2024-03-23T18:41:11;6.10;;;1.58;;
51985;SDS011;38002;53.296;6.600;2024-03-23T18:46:11;12.57;;;2.40;;
51985;SDS011;38002;53.296;6.600;2024-03-23T18:51:11;4.70;;;1.77;;
51985;SDS011;38002;53.296;6.600;2024-03-23T18:56:12;10.73;;;2.40;;
51985;SDS011;38002;53.296;6.600;2024-03-23T19:01:13;7.57;;;1.90;;
51985;SDS011;38002;53.296;6.600;2024-03-23T19:06:13;8.97;;;1.73;;
51985;SDS011;38002;53.296;6.600;2024-03-23T19:11:14;7.17;;;2.10;;
51985;SDS011;38002;53.296;6.600;2024-03-23T19:16:14;5.30;;;1.70;;
51985;SDS011;38002;53.296;6.600;2024-03-23T19:21:15;6.37;;;1.70;;
51985;SDS011;38002;53.296;6.600;2024-03-23T19:26:16;4.43;;;1.67;;
51985;SDS011;38002;53.296;6.600;2024-03-23T19:31:16;6.50;;;2.23;;
51985;SDS011;38002;53.296;6.600;2024-03-23T19:36:17;5.00;;;1.37;;
51985;SDS011;38002;53.296;6.600;2024-03-23T19:41:17;8.40;;;1.30;;
51985;SDS011;38002;53.296;6.600;2024-03-23T19:46:18;4.47;;;1.93;;
51985;SDS011;38002;53.296;6.600;2024-03-23T19:51:18;7.27;;;2.33;;
51985;SDS011;38002;53.296;6.600;2024-03-23T19:56:19;10.23;;;1.88;;
51985;SDS011;38002;53.296;6.600;2024-03-23T20:01:19;8.40;;;1.63;;
51985;SDS011;38002;53.296;6.600;2024-03-23T20:06:21;7.72;;;1.63;;
51985;SDS011;38002;53.296;6.600;2024-03-23T20:11:25;4.50;;;1.80;;
51985;SDS011;38002;53.296;6.600;2024-03-23T20:16:27;8.10;;;2.55;;
51985;SDS011;38002;53.296;6.600;2024-03-23T20:21:27;2.92;;;1.50;;
51985;SDS011;38002;53.296;6.600;2024-03-23T20:26:28;5.83;;;1.67;;
51985;SDS011;38002;53.296;6.600;2024-03-23T20:31:28;7.15;;;1.70;;
51985;SDS011;38002;53.296;6.600;2024-03-23T20:36:29;4.30;;;1.70;;
51985;SDS011;38002;53.296;6.600;2024-03-23T20:41:30;4.97;;;1.77;;
51985;SDS011;38002;53.296;6.600;2024-03-23T20:46:30;2.77;;;1.30;;
51985;SDS011;38002;53.296;6.600;2024-03-23T20:51:31;2.87;;;1.00;;
51985;SDS011;38002;53.296;6.600;2024-03-23T20:56:31;10.13;;;2.77;;
51985;SDS011;38002;53.296;6.600;2024-03-23T21:01:32;3.22;;;1.70;;
51985;SDS011;38002;53.296;6.600;2024-03-23T21:06:33;3.33;;;1.65;;
51985;SDS011;38002;53.296;6.600;2024-03-23T21:11:33;11.40;;;2.42;;
51985;SDS011;38002;53.296;6.600;2024-03-23T21:16:34;8.18;;;2.22;;
51985;SDS011;38002;53.296;6.600;2024-03-23T21:21:34;4.10;;;1.67;;
51985;SDS011;38002;53.296;6.600;2024-03-23T21:26:35;4.73;;;4.20;;
51985;SDS011;38002;53.296;6.600;2024-03-23T21:31:36;2.90;;;2.17;;
51985;SDS011;38002;53.296;6.600;2024-03-23T21:36:36;9.30;;;2.03;;
51985;SDS011;38002;53.296;6.600;2024-03-23T21:41:37;6.23;;;1.87;;
51985;SDS011;38002;53.296;6.600;2024-03-23T21:46:37;4.50;;;2.07;;
51985;SDS011;38002;53.296;6.600;2024-03-23T21:51:38;5.70;;;2.17;;
51985;SDS011;38002;53.296;6.600;2024-03-23T21:56:38;3.80;;;1.98;;
51985;SDS011;38002;53.296;6.600;2024-03-23T22:01:39;2.80;;;1.97;;
51985;SDS011;38002;53.296;6.600;2024-03-23T22:06:39;3.80;;;1.70;;
51985;SDS011;38002;53.296;6.600;2024-03-23T22:11:40;2.37;;;2.27;;
51985;SDS011;38002;53.296;6.600;2024-03-23T22:16:40;3.40;;;2.08;;
51985;SDS011;38002;53.296;6.600;2024-03-23T22:21:41;3.90;;;1.98;;
51985;SDS011;38002;53.296;6.600;2024-03-23T22:26:42;7.33;;;2.33;;
51985;SDS011;38002;53.296;6.600;2024-03-23T22:31:43;7.90;;;1.63;;
51985;SDS011;38002;53.296;6.600;2024-03-23T22:36:43;9.93;;;2.05;;
51985;SDS011;38002;53.296;6.600;2024-03-23T22:41:44;5.30;;;1.73;;
51985;SDS011;38002;53.296;6.600;2024-03-23T22:46:44;8.32;;;1.90;;
51985;SDS011;38002;53.296;6.600;2024-03-23T22:51:44;6.83;;;2.17;;
51985;SDS011;38002;53.296;6.600;2024-03-23T22:56:45;5.70;;;2.47;;
51985;SDS011;38002;53.296;6.600;2024-03-23T23:01:45;4.68;;;2.40;;
51985;SDS011;38002;53.296;6.600;2024-03-23T23:06:46;6.30;;;2.20;;
51985;SDS011;38002;53.296;6.600;2024-03-23T23:11:47;6.13;;;1.90;;
51985;SDS011;38002;53.296;6.600;2024-03-23T23:16:47;8.70;;;2.40;;
51985;SDS011;38002;53.296;6.600;2024-03-23T23:21:47;6.57;;;2.53;;
51985;SDS011;38002;53.296;6.600;2024-03-23T23:26:48;4.80;;;2.67;;
51985;SDS011;38002;53.296;6.600;2024-03-23T23:31:48;3.92;;;2.45;;
51985;SDS011;38002;53.296;6.600;2024-03-23T23:36:49;4.23;;;1.83;;
51985;SDS011;38002;53.296;6.600;2024-03-23T23:41:50;2.93;;;1.97;;
51985;SDS011;38002;53.296;6.600;2024-03-23T23:46:50;4.27;;;2.67;;
51985;SDS011;38002;53.296;6.600;2024-03-23T23:51:50;4.47;;;2.30;;
51985;SDS011;38002;53.296;6.600;2024-03-23T23:56:51;5.47;;;2.47;;
